In Rescue
 
Open Full Screen Window  High Contrast Mode
Wind Gusting 00 knots
03
November 29, 2022 7:45 AM CST
Present Weather: Snow
Weather Information
Wind Direction
  010 °
Wind Speed
  03 kt (3 mph)
Wind Gust
  00 kt (0 mph)
Altimeter
29.71 in
Visibility
3/4 SM
Temperature
-02° C
28° F
Dewpoint
-03° C
27° F
Humidity
93%
1hr Rain Fall
00.01 in.
24hr Rain Fall
00.01 in.
Sky Condition
Broken @ 800 ft
IFR

METAR K21D 291345Z AUTO 01003KT 3/4SM SN BKN008 M02/M03 A2971 RMK AO2 P0001

FAA Disclaimer: The data displayed is for advisory purposes only and is not to be used for flight planning or operations.